Flugplatz St. Michaelisdonn (EDXM)

Hier findest Du alle Informationen zum Flugplatz St. Michaelisdonn (EDXM).

Informationen für Piloten zum Flugplatz St. Michaelisdonn

Hier findest Du alle relevanten Informationen, die Du als Pilot benötigst, um St. Michaelisdonn anzufliegen.

Flugplatz: St. Michaelisdonn ICAO-Code: EDXM
Frequenz Turm: 122,500 Mhz GAFOR Gebiet: 3
Frequenz Ground: 122,500 Mhz Mogas: ja
Platzrunde: N 1000 ft Landegebühr: 5,00 €
Platzhöhe: 124 ft Sunrise: 06:24 Uhr UTC
Pisten: 08/26 - 700 m x 18 m, ASPH Sunset: 16:48 Uhr UTC

Mitglieder, die in St. Michaelisdonn fliegen

Flugwetter am Flugplatz St. Michaelisdonn

Die METAR Information stammen aus EDHI (67.03 km entfernt).

METAR Code:
2024/01/23 12:50
EDHI 231250Z 24015KT 9999 BKN021 07/04 Q1019

Flugschulen am Flugplatz St. Michaelisdonn

Am Flugplatz St. Michaelisdonn gibt es leider keine Flugschule.

Benachbarte Flugplätze und Flugschulen

Es gibt 8 weitere Flugplätze in einem Umkreis von 50 km um den Flugplatz St. Michaelisdonn.

Jetzt anmelden

Passwort vergessen

Umfrage Archiv

Wie häufig haltet Ihr die Halbkreisflugregel ein?

Eher häufig!
34.7 %
Immer!
32.2 %
Hin und wieder!
15.8 %
Nie!
10.4 %
Eher selten!
6.9 %
Stimmen: 202 | Diskussion
Anzeige: Roland Aircraft
Statistik Alle Mitglieder

Aktuell sind 22 Besucher online, davon 1 Mitglied und 21 Gäste.


Mitglieder online:
Raventumble 

Anzeige: EasyVFR